createdAt,value
2023-09-03T00:00:19.514Z,100.00
2023-09-03T00:02:46.181Z,100.00
2023-09-03T00:05:12.899Z,100.00
2023-09-03T00:07:42.431Z,100.00
2023-09-03T00:10:11.677Z,100.00
2023-09-03T00:12:40.892Z,100.00
2023-09-03T00:15:09.123Z,100.00
2023-09-03T00:17:36.184Z,100.00
2023-09-03T00:20:05.950Z,100.00
2023-09-03T00:22:35.502Z,100.00
2023-09-03T00:25:04.535Z,100.00
2023-09-03T00:27:33.209Z,100.00
2023-09-03T00:29:59.934Z,100.00
2023-09-03T00:32:27.049Z,100.00
2023-09-03T00:34:53.726Z,100.00
2023-09-03T00:37:20.309Z,100.00
2023-09-03T00:39:46.922Z,100.00
2023-09-03T00:42:13.535Z,100.00
2023-09-03T00:44:42.390Z,100.00
2023-09-03T00:47:13.691Z,100.00
2023-09-03T00:49:41.491Z,100.00
2023-09-03T00:52:10.424Z,100.00
2023-09-03T00:54:39.658Z,100.00
2023-09-03T00:57:06.324Z,100.00
2023-09-03T00:59:33.914Z,100.00
2023-09-03T01:02:00.493Z,100.00
2023-09-03T01:04:29.827Z,100.00
2023-09-03T01:06:58.982Z,100.00
2023-09-03T01:09:25.832Z,100.00
2023-09-03T01:12:16.841Z,100.00
2023-09-03T01:14:46.996Z,100.00
2023-09-03T01:17:32.874Z,100.00
2023-09-03T01:20:08.046Z,100.00
2023-09-03T01:22:36.812Z,100.00
2023-09-03T01:25:10.445Z,100.00
2023-09-03T01:27:38.702Z,100.00
2023-09-03T01:30:05.920Z,100.00
2023-09-03T01:32:32.729Z,100.00
2023-09-03T01:35:04.192Z,100.00
2023-09-03T01:37:30.888Z,100.00
2023-09-03T01:40:02.767Z,100.00
2023-09-03T01:42:31.542Z,100.00
2023-09-03T01:45:01.572Z,100.00
2023-09-03T01:47:31.336Z,100.00
2023-09-03T01:50:27.413Z,100.00
2023-09-03T01:53:00.338Z,100.00
2023-09-03T01:55:27.038Z,100.00
2023-09-03T01:57:56.668Z,100.00
2023-09-03T02:00:24.023Z,100.00
2023-09-03T02:02:52.587Z,100.00
2023-09-03T02:05:19.416Z,100.00
2023-09-03T02:07:48.505Z,100.00
2023-09-03T02:10:15.284Z,100.00
2023-09-03T02:12:41.972Z,100.00
2023-09-03T02:15:11.139Z,100.00
2023-09-03T02:17:37.781Z,100.00
2023-09-03T02:20:05.040Z,100.00
2023-09-03T02:22:31.850Z,100.00
2023-09-03T02:24:58.483Z,100.00
2023-09-03T02:27:25.368Z,100.00
2023-09-03T02:30:00.127Z,100.00
2023-09-03T02:32:26.901Z,100.00
2023-09-03T02:34:55.928Z,100.00
2023-09-03T02:37:24.009Z,100.00
2023-09-03T02:39:50.995Z,100.00
2023-09-03T02:42:20.229Z,100.00
2023-09-03T02:44:46.936Z,100.00
2023-09-03T02:47:14.259Z,100.00
2023-09-03T02:49:41.900Z,100.00
2023-09-03T02:52:11.349Z,100.00
2023-09-03T02:54:38.015Z,100.00
2023-09-03T02:57:04.805Z,100.00
2023-09-03T02:59:34.050Z,100.00
2023-09-03T03:02:01.352Z,100.00
2023-09-03T03:04:28.167Z,100.00
2023-09-03T03:06:54.788Z,100.00
2023-09-03T03:09:22.169Z,100.00
2023-09-03T03:11:51.494Z,100.00
2023-09-03T03:14:21.008Z,100.00
2023-09-03T03:16:48.150Z,100.00
2023-09-03T03:19:20.366Z,100.00
2023-09-03T03:21:47.156Z,100.00
2023-09-03T03:24:14.762Z,100.00
2023-09-03T03:26:41.879Z,100.00
2023-09-03T03:29:14.421Z,100.00
2023-09-03T03:31:47.511Z,100.00
2023-09-03T03:34:14.468Z,100.00
2023-09-03T03:36:45.500Z,100.00
2023-09-03T03:39:14.849Z,100.00
2023-09-03T03:41:42.722Z,100.00
2023-09-03T03:44:14.521Z,100.00
2023-09-03T03:46:43.875Z,100.00
2023-09-03T03:49:12.978Z,100.00
2023-09-03T03:51:42.124Z,100.00
2023-09-03T03:54:08.760Z,100.00
2023-09-03T03:56:36.119Z,100.00
2023-09-03T03:59:02.925Z,100.00
2023-09-03T04:01:30.337Z,100.00
2023-09-03T04:03:57.235Z,100.00
2023-09-03T04:06:24.038Z,100.00
2023-09-03T04:08:53.591Z,100.00
2023-09-03T04:11:20.346Z,100.00
2023-09-03T04:13:49.485Z,100.00
2023-09-03T04:16:23.670Z,100.00
2023-09-03T04:18:52.026Z,100.00
2023-09-03T04:21:21.742Z,100.00
2023-09-03T04:23:51.193Z,100.00
2023-09-03T04:26:18.248Z,100.00
2023-09-03T04:28:56.127Z,100.00
2023-09-03T04:31:22.892Z,100.00
2023-09-03T04:33:52.357Z,100.00
2023-09-03T04:36:19.558Z,100.00
2023-09-03T04:38:46.246Z,100.00
2023-09-03T04:41:15.994Z,100.00
2023-09-03T04:44:08.857Z,100.00
2023-09-03T04:46:44.942Z,100.00
2023-09-03T04:49:11.801Z,100.00
2023-09-03T04:51:38.663Z,100.00
2023-09-03T04:54:10.440Z,100.00
2023-09-03T04:56:39.595Z,100.00
2023-09-03T04:59:06.407Z,100.00
2023-09-03T05:01:36.485Z,100.00
2023-09-03T05:04:06.485Z,100.00
2023-09-03T05:06:33.452Z,100.00
2023-09-03T05:09:00.509Z,100.00
2023-09-03T05:11:30.373Z,100.00
2023-09-03T05:14:00.990Z,100.00
2023-09-03T05:16:28.910Z,100.00
2023-09-03T05:19:05.865Z,100.00
2023-09-03T05:21:33.974Z,100.00
2023-09-03T05:24:01.100Z,100.00
2023-09-03T05:26:27.863Z,100.00
2023-09-03T05:28:57.046Z,100.00
2023-09-03T05:31:23.754Z,100.00
2023-09-03T05:33:50.800Z,100.00
2023-09-03T05:36:17.436Z,100.00
2023-09-03T05:38:44.422Z,100.00
2023-09-03T05:41:11.337Z,100.00
2023-09-03T05:43:38.760Z,100.00
2023-09-03T05:46:05.565Z,100.00
2023-09-03T05:48:33.424Z,100.00
2023-09-03T05:51:06.740Z,100.00
2023-09-03T05:53:36.282Z,100.00
2023-09-03T05:56:12.779Z,100.00
2023-09-03T05:58:43.440Z,100.00
2023-09-03T06:01:10.819Z,100.00
2023-09-03T06:03:42.080Z,100.00
2023-09-03T06:06:13.372Z,100.00
2023-09-03T06:08:43.577Z,100.00
2023-09-03T06:11:10.195Z,100.00
2023-09-03T06:13:39.453Z,100.00
2023-09-03T06:16:08.425Z,100.00
2023-09-03T06:18:35.343Z,100.00
2023-09-03T06:21:02.015Z,100.00
2023-09-03T06:23:28.694Z,100.00
2023-09-03T06:25:57.701Z,100.00
2023-09-03T06:28:24.790Z,100.00
2023-09-03T06:30:53.447Z,100.00
2023-09-03T06:33:20.385Z,100.00
2023-09-03T06:35:47.256Z,100.00
2023-09-03T06:38:16.338Z,100.00
2023-09-03T06:40:42.939Z,100.00
2023-09-03T06:43:09.554Z,100.00
2023-09-03T06:45:38.785Z,100.00
2023-09-03T06:48:05.636Z,100.00
2023-09-03T06:50:32.318Z,100.00
2023-09-03T06:53:01.155Z,100.00
2023-09-03T06:55:27.862Z,100.00
2023-09-03T06:57:54.636Z,100.00
2023-09-03T07:00:29.761Z,100.00
2023-09-03T07:02:56.411Z,100.00
2023-09-03T07:05:23.226Z,100.00
2023-09-03T07:07:49.846Z,100.00
2023-09-03T07:10:16.592Z,100.00
2023-09-03T07:12:46.097Z,100.00
2023-09-03T07:15:15.282Z,100.00
2023-09-03T07:17:41.974Z,100.00
2023-09-03T07:20:11.503Z,100.00
2023-09-03T07:22:38.286Z,100.00
2023-09-03T07:25:05.119Z,100.00
2023-09-03T07:27:39.610Z,100.00
2023-09-03T07:30:07.552Z,100.00
2023-09-03T07:32:38.156Z,100.00
2023-09-03T07:35:06.120Z,100.00
2023-09-03T07:37:33.266Z,100.00
2023-09-03T07:40:00.077Z,100.00
2023-09-03T07:42:26.733Z,100.00
2023-09-03T07:44:54.178Z,100.00
2023-09-03T07:47:21.138Z,100.00
2023-09-03T07:49:47.813Z,100.00
2023-09-03T07:52:15.239Z,100.00
2023-09-03T07:54:41.941Z,100.00
2023-09-03T07:57:11.605Z,100.00
2023-09-03T07:59:39.801Z,100.00
2023-09-03T08:02:06.776Z,100.00
2023-09-03T08:04:33.830Z,100.00
2023-09-03T08:07:00.429Z,100.00
2023-09-03T08:09:29.943Z,100.00
2023-09-03T08:12:01.373Z,100.00
2023-09-03T08:14:27.994Z,100.00
2023-09-03T08:16:57.178Z,100.00
2023-09-03T08:19:23.943Z,100.00
2023-09-03T08:21:53.050Z,100.00
2023-09-03T08:24:24.443Z,100.00
2023-09-03T08:26:51.128Z,100.00
2023-09-03T08:29:19.933Z,100.00
2023-09-03T08:31:46.652Z,100.00
2023-09-03T08:34:13.320Z,100.00
2023-09-03T08:36:40.050Z,100.00
2023-09-03T08:39:13.876Z,100.00
2023-09-03T08:41:41.112Z,100.00
2023-09-03T08:44:10.481Z,100.00
2023-09-03T08:46:39.981Z,100.00
2023-09-03T08:49:08.896Z,100.00
2023-09-03T08:51:35.507Z,100.00
2023-09-03T08:54:02.126Z,100.00
2023-09-03T08:56:29.588Z,100.00
2023-09-03T08:58:56.219Z,100.00
2023-09-03T09:01:25.198Z,100.00
2023-09-03T09:03:53.216Z,100.00
2023-09-03T09:06:20.180Z,100.00
2023-09-03T09:08:46.856Z,100.00
2023-09-03T09:11:17.374Z,100.00
2023-09-03T09:13:47.648Z,100.00
2023-09-03T09:16:14.294Z,100.00
2023-09-03T09:18:43.340Z,100.00
2023-09-03T09:21:10.201Z,100.00
2023-09-03T09:23:39.467Z,100.00
2023-09-03T09:26:24.553Z,100.00
2023-09-03T09:29:01.304Z,100.00
2023-09-03T09:31:31.618Z,100.00
2023-09-03T09:34:16.372Z,100.00
2023-09-03T09:36:53.350Z,100.00
2023-09-03T09:39:19.995Z,100.00
2023-09-03T09:41:46.992Z,100.00
2023-09-03T09:44:13.622Z,100.00
2023-09-03T09:46:42.980Z,100.00
2023-09-03T09:49:11.876Z,100.00
2023-09-03T09:51:38.570Z,100.00
2023-09-03T09:54:07.532Z,100.00
2023-09-03T09:56:37.865Z,100.00
2023-09-03T09:59:04.582Z,100.00
2023-09-03T10:01:47.818Z,100.00
2023-09-03T10:04:14.884Z,100.00
2023-09-03T10:06:41.687Z,100.00
2023-09-03T10:09:11.630Z,100.00
2023-09-03T10:11:40.982Z,100.00
2023-09-03T10:14:08.525Z,100.00
2023-09-03T10:16:40.053Z,100.00
2023-09-03T10:19:13.988Z,100.00
2023-09-03T10:21:52.487Z,100.00
2023-09-03T10:24:20.929Z,100.00
2023-09-03T10:26:49.558Z,100.00
2023-09-03T10:29:20.686Z,100.00
2023-09-03T10:31:52.892Z,100.00
2023-09-03T10:34:19.557Z,100.00
2023-09-03T10:37:05.977Z,100.00
2023-09-03T10:39:32.754Z,100.00
2023-09-03T10:42:18.321Z,100.00
2023-09-03T10:44:53.929Z,100.00
2023-09-03T10:47:20.989Z,100.00
2023-09-03T10:49:48.367Z,100.00
2023-09-03T10:52:31.845Z,100.00
2023-09-03T10:55:10.970Z,100.00
2023-09-03T10:57:40.560Z,100.00
2023-09-03T11:00:11.071Z,100.00
2023-09-03T11:02:38.167Z,100.00
2023-09-03T11:05:17.958Z,100.00
2023-09-03T11:07:48.133Z,100.00
2023-09-03T11:10:26.740Z,100.00
2023-09-03T11:12:53.657Z,100.00
2023-09-03T11:15:20.550Z,100.00
2023-09-03T11:17:50.814Z,100.00
2023-09-03T11:20:47.905Z,100.00
2023-09-03T11:23:19.820Z,100.00
2023-09-03T11:25:46.640Z,100.00
2023-09-03T11:28:13.574Z,100.00
2023-09-03T11:30:41.180Z,100.00
2023-09-03T11:33:10.330Z,100.00
2023-09-03T11:35:44.656Z,100.00
2023-09-03T11:38:11.789Z,100.00
2023-09-03T11:40:39.904Z,100.00
2023-09-03T11:43:10.919Z,100.00
2023-09-03T11:45:37.761Z,100.00
2023-09-03T11:48:10.233Z,100.00
2023-09-03T11:50:39.606Z,100.00
2023-09-03T11:53:06.333Z,100.00
2023-09-03T11:55:34.423Z,100.00
2023-09-03T11:58:01.831Z,100.00
2023-09-03T12:00:28.723Z,100.00
2023-09-03T12:02:55.413Z,100.00
2023-09-03T12:05:22.049Z,100.00
2023-09-03T12:07:48.729Z,100.00
2023-09-03T12:10:19.885Z,100.00
2023-09-03T12:12:47.153Z,100.00
2023-09-03T12:15:22.916Z,100.00
2023-09-03T12:17:49.887Z,100.00
2023-09-03T12:20:34.447Z,100.00
2023-09-03T12:23:10.737Z,100.00
2023-09-03T12:25:37.545Z,100.00
2023-09-03T12:28:06.886Z,100.00
2023-09-03T12:30:52.127Z,100.00
2023-09-03T12:33:18.857Z,100.00
2023-09-03T12:35:45.815Z,100.00
2023-09-03T12:38:17.814Z,100.00
2023-09-03T12:40:44.427Z,100.00
2023-09-03T12:43:11.054Z,100.00
2023-09-03T12:45:40.256Z,100.00
2023-09-03T12:48:11.748Z,100.00
2023-09-03T12:50:40.562Z,100.00
2023-09-03T12:53:07.198Z,100.00
2023-09-03T12:55:33.833Z,100.00
2023-09-03T12:58:00.495Z,100.00
2023-09-03T13:00:29.503Z,100.00
2023-09-03T13:02:56.188Z,100.00
2023-09-03T13:05:22.979Z,100.00
2023-09-03T13:07:49.696Z,100.00
2023-09-03T13:10:18.712Z,100.00
2023-09-03T13:12:45.311Z,100.00
2023-09-03T13:15:12.232Z,100.00
2023-09-03T13:17:41.433Z,100.00
2023-09-03T13:20:08.418Z,100.00
2023-09-03T13:22:37.200Z,100.00
2023-09-03T13:25:06.497Z,100.00
2023-09-03T13:27:33.212Z,100.00
2023-09-03T13:29:59.791Z,100.00
2023-09-03T13:32:26.581Z,100.00
2023-09-03T13:34:55.588Z,100.00
2023-09-03T13:37:22.234Z,100.00
2023-09-03T13:39:49.046Z,100.00
2023-09-03T13:42:15.700Z,100.00
2023-09-03T13:44:42.404Z,100.00
2023-09-03T13:47:13.945Z,100.00
2023-09-03T13:49:45.198Z,100.00
2023-09-03T13:52:16.746Z,100.00
2023-09-03T13:54:49.000Z,100.00
2023-09-03T13:57:15.654Z,100.00
2023-09-03T13:59:43.123Z,100.00
2023-09-03T14:02:09.887Z,98.48
2023-09-03T14:04:38.907Z,97.17
2023-09-03T14:07:05.604Z,89.24
2023-09-03T14:09:32.309Z,79.33
2023-09-03T14:11:58.895Z,77.19
2023-09-03T14:14:26.027Z,72.21
2023-09-03T14:16:52.662Z,64.72
2023-09-03T14:19:23.766Z,56.17
2023-09-03T14:21:50.748Z,58.10
2023-09-03T14:24:19.845Z,53.26
2023-09-03T14:26:49.033Z,52.45
2023-09-03T14:29:17.595Z,50.67
2023-09-03T14:31:51.940Z,49.35
2023-09-03T14:34:21.041Z,46.49
2023-09-03T14:36:47.733Z,48.00
2023-09-03T14:39:14.639Z,47.99
2023-09-03T14:41:41.378Z,43.37
2023-09-03T14:44:08.093Z,43.91
2023-09-03T14:46:35.138Z,43.40
2023-09-03T14:49:02.412Z,41.15
2023-09-03T14:51:31.566Z,39.98
2023-09-03T14:53:58.282Z,40.04
2023-09-03T14:56:25.068Z,39.62
2023-09-03T14:58:51.806Z,36.67
2023-09-03T15:01:20.280Z,37.39
2023-09-03T15:03:51.636Z,35.72
2023-09-03T15:06:21.260Z,36.12
2023-09-03T15:08:47.929Z,35.71
2023-09-03T15:11:15.664Z,35.69
2023-09-03T15:13:53.864Z,35.65
2023-09-03T15:16:21.049Z,33.50
2023-09-03T15:18:47.692Z,35.06
2023-09-03T15:21:14.436Z,36.81
2023-09-03T15:23:41.171Z,37.08
2023-09-03T15:26:10.551Z,38.60
2023-09-03T15:28:37.568Z,39.40
2023-09-03T15:31:04.347Z,38.94
2023-09-03T15:33:31.106Z,40.63
2023-09-03T15:35:57.708Z,40.64
2023-09-03T15:38:24.714Z,40.82
2023-09-03T15:40:51.463Z,41.29
2023-09-03T15:43:20.119Z,42.88
2023-09-03T15:45:49.657Z,44.03
2023-09-03T15:48:16.360Z,44.25
2023-09-03T15:50:43.289Z,44.92
2023-09-03T15:53:12.491Z,45.76
2023-09-03T15:55:39.100Z,46.34
2023-09-03T15:58:05.727Z,46.17
2023-09-03T16:00:34.084Z,45.23
2023-09-03T16:03:00.864Z,45.63
2023-09-03T16:05:27.695Z,46.02
2023-09-03T16:07:59.503Z,46.74
2023-09-03T16:10:26.291Z,47.36
2023-09-03T16:12:58.348Z,48.41
2023-09-03T16:15:25.941Z,49.91
2023-09-03T16:17:52.773Z,50.98
2023-09-03T16:20:19.516Z,51.21
2023-09-03T16:22:46.228Z,53.25
2023-09-03T16:25:12.907Z,53.56
2023-09-03T16:27:39.668Z,54.96
2023-09-03T16:30:06.682Z,55.64
2023-09-03T16:32:34.064Z,56.80
2023-09-03T16:35:00.857Z,57.35
2023-09-03T16:37:27.560Z,57.86
2023-09-03T16:39:54.200Z,57.88
2023-09-03T16:42:23.423Z,59.03
2023-09-03T16:44:57.055Z,59.14
2023-09-03T16:47:26.068Z,59.98
2023-09-03T16:49:53.688Z,60.60
2023-09-03T16:52:20.724Z,61.04
2023-09-03T16:54:50.225Z,61.18
2023-09-03T16:57:16.918Z,62.83
2023-09-03T16:59:43.708Z,64.78
2023-09-03T17:02:13.866Z,65.04
2023-09-03T17:04:42.015Z,65.50
2023-09-03T17:07:12.027Z,66.62
2023-09-03T17:09:39.450Z,68.28
2023-09-03T17:12:08.735Z,69.11
2023-09-03T17:14:35.505Z,70.19
2023-09-03T17:17:06.774Z,70.14
2023-09-03T17:19:36.433Z,70.68
2023-09-03T17:22:03.668Z,72.27
2023-09-03T17:24:30.642Z,72.95
2023-09-03T17:27:00.296Z,73.17
2023-09-03T17:29:30.353Z,73.02
2023-09-03T17:31:57.797Z,73.19
2023-09-03T17:34:24.896Z,73.52
2023-09-03T17:36:51.611Z,73.58
2023-09-03T17:39:18.365Z,75.13
2023-09-03T17:41:45.076Z,75.46
2023-09-03T17:44:11.780Z,75.88
2023-09-03T17:46:38.782Z,74.62
2023-09-03T17:49:05.480Z,75.98
2023-09-03T17:51:32.200Z,76.73
2023-09-03T17:53:59.096Z,75.47
2023-09-03T17:56:25.907Z,76.93
2023-09-03T17:58:52.574Z,76.55
2023-09-03T18:01:19.614Z,76.36
2023-09-03T18:03:46.481Z,77.44
2023-09-03T18:06:13.696Z,78.54
2023-09-03T18:08:41.187Z,79.23
2023-09-03T18:11:11.359Z,78.75
2023-09-03T18:13:38.338Z,78.65
2023-09-03T18:16:07.541Z,79.50
2023-09-03T18:18:34.293Z,82.32
2023-09-03T18:21:03.756Z,82.78
2023-09-03T18:23:32.805Z,83.20
2023-09-03T18:25:59.631Z,83.81
2023-09-03T18:28:31.250Z,85.15
2023-09-03T18:30:58.427Z,84.69
2023-09-03T18:33:25.937Z,84.98
2023-09-03T18:35:53.898Z,85.94
2023-09-03T18:38:25.885Z,87.03
2023-09-03T18:40:52.805Z,87.36
2023-09-03T18:43:19.465Z,87.21
2023-09-03T18:45:46.321Z,87.83
2023-09-03T18:48:13.815Z,88.02
2023-09-03T18:50:42.863Z,88.06
2023-09-03T18:53:09.575Z,88.34
2023-09-03T18:55:39.543Z,88.10
2023-09-03T18:58:08.740Z,89.79
2023-09-03T19:00:38.537Z,91.17
2023-09-03T19:03:08.377Z,91.88
2023-09-03T19:05:50.244Z,92.73
2023-09-03T19:08:22.397Z,93.88
2023-09-03T19:11:09.569Z,94.46
2023-09-03T19:13:38.790Z,95.42
2023-09-03T19:16:05.586Z,94.57
2023-09-03T19:18:32.935Z,94.90
2023-09-03T19:20:59.674Z,96.12
2023-09-03T19:23:28.886Z,97.80
2023-09-03T19:25:56.005Z,98.88
2023-09-03T19:28:22.961Z,97.83
2023-09-03T19:30:51.390Z,97.64
2023-09-03T19:33:21.874Z,98.33
2023-09-03T19:35:58.057Z,99.81
2023-09-03T19:38:33.544Z,100.00
2023-09-03T19:41:01.424Z,100.00
2023-09-03T19:43:32.994Z,100.00
2023-09-03T19:46:01.060Z,100.00
2023-09-03T19:48:31.718Z,100.00
2023-09-03T19:51:01.343Z,100.00
2023-09-03T19:53:29.994Z,100.00
2023-09-03T19:55:56.669Z,100.00
2023-09-03T19:58:23.544Z,100.00
2023-09-03T20:00:54.460Z,100.00
2023-09-03T20:03:21.328Z,100.00
2023-09-03T20:05:56.292Z,100.00
2023-09-03T20:08:25.876Z,100.00
2023-09-03T20:10:55.732Z,100.00
2023-09-03T20:13:22.460Z,100.00
2023-09-03T20:15:58.301Z,100.00
2023-09-03T20:18:25.667Z,100.00
2023-09-03T20:20:55.851Z,100.00
2023-09-03T20:23:22.936Z,100.00
2023-09-03T20:25:56.810Z,100.00
2023-09-03T20:28:39.510Z,100.00
2023-09-03T20:31:12.631Z,100.00
2023-09-03T20:33:41.802Z,100.00
2023-09-03T20:36:09.184Z,100.00
2023-09-03T20:38:38.942Z,100.00
2023-09-03T20:41:08.184Z,100.00
2023-09-03T20:43:37.824Z,100.00
2023-09-03T20:46:04.807Z,100.00
2023-09-03T20:48:34.299Z,100.00
2023-09-03T20:51:01.192Z,100.00
2023-09-03T20:53:28.018Z,100.00
2023-09-03T20:55:55.614Z,100.00
2023-09-03T20:58:22.908Z,100.00
2023-09-03T21:00:54.724Z,100.00
2023-09-03T21:03:21.658Z,100.00
2023-09-03T21:05:48.957Z,100.00
2023-09-03T21:08:15.612Z,100.00
2023-09-03T21:10:42.185Z,100.00
2023-09-03T21:13:11.138Z,100.00
2023-09-03T21:15:40.960Z,100.00
2023-09-03T21:18:07.899Z,100.00
2023-09-03T21:20:34.604Z,100.00
2023-09-03T21:23:01.220Z,100.00
2023-09-03T21:25:28.025Z,100.00
2023-09-03T21:27:54.789Z,100.00
2023-09-03T21:30:21.401Z,100.00
2023-09-03T21:32:48.227Z,100.00
2023-09-03T21:35:24.051Z,100.00
2023-09-03T21:37:51.151Z,100.00
2023-09-03T21:40:20.265Z,100.00
2023-09-03T21:42:51.128Z,100.00
2023-09-03T21:45:20.254Z,100.00
2023-09-03T21:47:47.021Z,100.00
2023-09-03T21:50:13.772Z,100.00
2023-09-03T21:52:42.666Z,100.00
2023-09-03T21:55:09.682Z,100.00
2023-09-03T21:57:36.707Z,100.00
2023-09-03T22:00:07.622Z,100.00
2023-09-03T22:02:37.413Z,100.00
2023-09-03T22:05:06.212Z,100.00
2023-09-03T22:07:35.404Z,100.00
2023-09-03T22:10:02.679Z,100.00
2023-09-03T22:12:29.386Z,100.00
2023-09-03T22:14:56.518Z,100.00
2023-09-03T22:17:25.363Z,100.00
2023-09-03T22:19:52.545Z,100.00
2023-09-03T22:22:19.364Z,100.00
2023-09-03T22:24:46.062Z,100.00
2023-09-03T22:27:12.747Z,100.00
2023-09-03T22:29:39.487Z,100.00
2023-09-03T22:32:08.607Z,100.00
2023-09-03T22:34:38.163Z,100.00
2023-09-03T22:37:04.859Z,100.00
2023-09-03T22:39:33.523Z,100.00
2023-09-03T22:42:03.184Z,100.00
2023-09-03T22:44:29.886Z,100.00
2023-09-03T22:46:56.541Z,100.00
2023-09-03T22:49:25.257Z,100.00
2023-09-03T22:51:52.326Z,100.00
2023-09-03T22:54:19.771Z,100.00
2023-09-03T22:56:46.983Z,100.00
2023-09-03T22:59:15.983Z,100.00
2023-09-03T23:01:45.539Z,100.00
2023-09-03T23:04:12.278Z,100.00
2023-09-03T23:06:38.881Z,100.00
2023-09-03T23:09:05.552Z,100.00
2023-09-03T23:11:34.744Z,100.00
2023-09-03T23:14:01.461Z,100.00
2023-09-03T23:16:30.961Z,100.00
2023-09-03T23:18:57.682Z,100.00
2023-09-03T23:21:26.596Z,100.00
2023-09-03T23:23:55.350Z,100.00
2023-09-03T23:26:25.411Z,100.00
2023-09-03T23:28:54.685Z,100.00
2023-09-03T23:31:21.582Z,100.00
2023-09-03T23:33:48.934Z,100.00
2023-09-03T23:36:15.548Z,100.00
2023-09-03T23:38:44.951Z,100.00
2023-09-03T23:41:11.757Z,100.00
2023-09-03T23:43:38.480Z,100.00
2023-09-03T23:46:05.662Z,100.00
2023-09-03T23:48:32.414Z,100.00
2023-09-03T23:51:02.256Z,100.00
2023-09-03T23:53:29.582Z,100.00
2023-09-03T23:55:58.752Z,100.00
2023-09-03T23:58:32.659Z,100.00
